createdAt,value
2018-08-25T00:01:06.835Z,100394.98
2018-08-25T00:03:35.048Z,100398.91
2018-08-25T00:06:03.288Z,100392.27
2018-08-25T00:08:31.516Z,100387.25
2018-08-25T00:10:59.736Z,100386.43
2018-08-25T00:13:27.962Z,100383.55
2018-08-25T00:15:56.172Z,100375.13
2018-08-25T00:18:24.393Z,100369.63
2018-08-25T00:20:52.611Z,100367.88
2018-08-25T00:23:20.864Z,100360.23
2018-08-25T00:25:49.071Z,100358.08
2018-08-25T00:28:17.332Z,100354.14
2018-08-25T00:30:50.828Z,100351.11
2018-08-25T00:33:19.060Z,100351.30
2018-08-25T00:35:47.268Z,100344.06
2018-08-25T00:38:15.508Z,100342.58
2018-08-25T00:40:43.733Z,100340.88
2018-08-25T00:43:11.977Z,100341.30
2018-08-25T00:45:40.196Z,100339.50
2018-08-25T00:48:08.456Z,100337.27
2018-08-25T00:50:36.680Z,100340.70
2018-08-25T00:53:04.912Z,100343.88
2018-08-25T00:55:33.125Z,100336.05
2018-08-25T00:58:01.351Z,100331.45
2018-08-25T01:00:29.568Z,100333.39
2018-08-25T01:02:57.788Z,100332.32
2018-08-25T01:05:26.009Z,100329.45
2018-08-25T01:07:54.292Z,100321.81
2018-08-25T01:10:22.520Z,100324.36
2018-08-25T01:12:50.756Z,100321.81
2018-08-25T01:15:18.963Z,100310.13
2018-08-25T01:17:47.196Z,100303.62
2018-08-25T01:20:15.419Z,100295.88
2018-08-25T01:22:43.638Z,100295.16
2018-08-25T01:25:11.844Z,100294.37
2018-08-25T01:27:40.067Z,100297.87
2018-08-25T01:30:08.278Z,100293.56
2018-08-25T01:32:36.504Z,100286.13
2018-08-25T01:35:04.740Z,100287.77
2018-08-25T01:37:32.968Z,100288.10
2018-08-25T01:40:01.243Z,100283.02
2018-08-25T01:42:29.453Z,100272.91
2018-08-25T01:44:57.679Z,100278.95
2018-08-25T01:47:25.896Z,100279.09
2018-08-25T01:49:54.131Z,100274.80
2018-08-25T01:52:22.325Z,100269.84
2018-08-25T01:54:50.560Z,100264.58
2018-08-25T01:57:18.765Z,100264.03
2018-08-25T01:59:46.991Z,100257.69
2018-08-25T02:02:15.196Z,100259.15
2018-08-25T02:04:43.453Z,100249.34
2018-08-25T02:07:11.677Z,100247.64
2018-08-25T02:09:39.895Z,100248.00
2018-08-25T02:12:08.129Z,100244.53
2018-08-25T02:14:36.385Z,100245.91
2018-08-25T02:17:04.656Z,100241.33
2018-08-25T02:19:32.918Z,100239.18
2018-08-25T02:22:01.140Z,100234.74
2018-08-25T02:24:29.388Z,100240.59
2018-08-25T02:26:57.611Z,100235.84
2018-08-25T02:29:25.847Z,100229.68
2018-08-25T02:31:54.113Z,100234.55
2018-08-25T02:34:22.364Z,100227.34
2018-08-25T02:36:50.588Z,100225.84
2018-08-25T02:39:18.820Z,100225.08
2018-08-25T02:41:47.052Z,100232.47
2018-08-25T02:44:15.332Z,100230.89
2018-08-25T02:46:43.562Z,100223.63
2018-08-25T02:49:11.824Z,100224.09
2018-08-25T02:51:40.092Z,100224.33
2018-08-25T02:54:08.385Z,100227.17
2018-08-25T02:56:36.626Z,100224.52
2018-08-25T02:59:05.076Z,100222.27
2018-08-25T03:01:33.312Z,100225.97
2018-08-25T03:04:01.750Z,100220.87
2018-08-25T03:06:29.975Z,100216.52
2018-08-25T03:08:58.240Z,100218.33
2018-08-25T03:11:26.448Z,100222.76
2018-08-25T03:13:54.772Z,100216.70
2018-08-25T03:16:22.912Z,100216.66
2018-08-25T03:18:51.168Z,100209.69
2018-08-25T03:21:19.384Z,100203.27
2018-08-25T03:23:47.624Z,100196.11
2018-08-25T03:26:15.845Z,100187.42
2018-08-25T03:28:44.058Z,100190.02
2018-08-25T03:31:12.878Z,100182.30
2018-08-25T03:33:41.127Z,100173.31
2018-08-25T03:36:09.387Z,100177.48
2018-08-25T03:38:37.590Z,100171.56
2018-08-25T03:41:06.559Z,100166.99
2018-08-25T03:43:34.767Z,100173.27
2018-08-25T03:46:03.009Z,100167.41
2018-08-25T03:48:31.409Z,100163.63
2018-08-25T03:50:59.676Z,100160.61
2018-08-25T03:53:27.903Z,100153.67
2018-08-25T03:55:56.145Z,100153.74
2018-08-25T03:58:24.422Z,100155.71
2018-08-25T04:00:53.979Z,100152.27
2018-08-25T04:03:22.207Z,100149.27
2018-08-25T04:05:50.455Z,100144.36
2018-08-25T04:08:18.674Z,100157.84
2018-08-25T04:10:46.904Z,100147.22
2018-08-25T04:13:15.128Z,100147.30
2018-08-25T04:15:43.424Z,100149.45
2018-08-25T04:18:11.657Z,100149.09
2018-08-25T04:20:39.883Z,100146.52
2018-08-25T04:23:08.089Z,100143.05
2018-08-25T04:25:36.364Z,100141.63
2018-08-25T04:28:04.581Z,100139.63
2018-08-25T04:30:32.833Z,100139.23
2018-08-25T04:33:01.079Z,100138.86
2018-08-25T04:35:29.307Z,100135.34
2018-08-25T04:37:57.544Z,100133.61
2018-08-25T04:40:25.772Z,100130.59
2018-08-25T04:42:53.988Z,100131.99
2018-08-25T04:45:22.221Z,100130.98
2018-08-25T04:47:50.464Z,100129.40
2018-08-25T04:50:18.760Z,100124.77
2018-08-25T04:52:46.984Z,100122.59
2018-08-25T04:55:15.233Z,100127.78
2018-08-25T04:57:43.744Z,100123.93
2018-08-25T05:00:12.001Z,100119.08
2018-08-25T05:02:40.233Z,100121.16
2018-08-25T05:05:08.517Z,100126.74
2018-08-25T05:07:36.784Z,100125.05
2018-08-25T05:10:05.040Z,100126.58
2018-08-25T05:12:33.280Z,100131.32
2018-08-25T05:15:01.520Z,100122.21
2018-08-25T05:17:29.791Z,100119.95
2018-08-25T05:19:58.076Z,100117.44
2018-08-25T05:22:26.335Z,100114.87
2018-08-25T05:24:54.569Z,100111.42
2018-08-25T05:27:23.740Z,100112.38
2018-08-25T05:29:55.073Z,100104.24
2018-08-25T05:32:23.341Z,100109.38
2018-08-25T05:34:51.809Z,100111.55
2018-08-25T05:37:20.272Z,100106.35
2018-08-25T05:39:48.500Z,100099.85
2018-08-25T05:42:16.767Z,100102.69
2018-08-25T05:44:44.972Z,100101.03
2018-08-25T05:47:13.199Z,100093.49
2018-08-25T05:49:41.425Z,100094.95
2018-08-25T05:52:09.688Z,100087.20
2018-08-25T05:54:37.885Z,100083.88
2018-08-25T05:57:06.127Z,100093.16
2018-08-25T05:59:34.357Z,100097.33
2018-08-25T06:02:03.044Z,100121.05
2018-08-25T06:04:31.480Z,100127.19
2018-08-25T06:06:59.712Z,100140.82
2018-08-25T06:09:27.920Z,100148.13
2018-08-25T06:11:56.143Z,100140.12
2018-08-25T06:14:24.347Z,100140.97
2018-08-25T06:16:52.564Z,100140.46
2018-08-25T06:19:20.824Z,100139.40
2018-08-25T06:21:49.072Z,100141.45
2018-08-25T06:24:17.276Z,100142.05
2018-08-25T06:26:45.522Z,100143.16
2018-08-25T06:29:13.768Z,100143.84
2018-08-25T06:31:41.998Z,100145.48
2018-08-25T06:34:10.239Z,100138.69
2018-08-25T06:36:38.519Z,100137.41
2018-08-25T06:39:08.051Z,100130.25
2018-08-25T06:41:36.308Z,100140.48
2018-08-25T06:44:04.525Z,100140.84
2018-08-25T06:46:32.741Z,100130.88
2018-08-25T06:49:01.028Z,100127.16
2018-08-25T06:51:29.339Z,100129.97
2018-08-25T06:53:57.727Z,100129.55
2018-08-25T06:56:25.964Z,100136.03
2018-08-25T06:58:54.164Z,100143.29
2018-08-25T07:01:22.371Z,100141.33
2018-08-25T07:03:50.600Z,100140.41
2018-08-25T07:06:18.803Z,100141.27
2018-08-25T07:08:47.037Z,100149.88
2018-08-25T07:11:15.256Z,100140.94
2018-08-25T07:13:44.384Z,100137.74
2018-08-25T07:16:12.595Z,100134.14
2018-08-25T07:18:40.837Z,100130.76
2018-08-25T07:21:09.052Z,100133.28
2018-08-25T07:23:37.280Z,100139.09
2018-08-25T07:26:05.526Z,100140.74
2018-08-25T07:28:33.745Z,100142.95
2018-08-25T07:31:01.957Z,100142.03
2018-08-25T07:33:30.222Z,100145.92
2018-08-25T07:35:58.428Z,100140.40
2018-08-25T07:38:26.698Z,100145.83
2018-08-25T07:40:54.937Z,100152.23
2018-08-25T07:43:23.175Z,100152.80
2018-08-25T07:45:51.381Z,100155.45
2018-08-25T07:48:19.624Z,100159.30
2018-08-25T07:50:47.868Z,100153.86
2018-08-25T07:53:16.093Z,100158.02
2018-08-25T07:55:44.304Z,100150.23
2018-08-25T07:58:12.555Z,100146.66
2018-08-25T08:00:40.756Z,100149.58
2018-08-25T08:03:09.064Z,100141.75
2018-08-25T08:05:37.373Z,100144.84
2018-08-25T08:08:05.589Z,100143.21
2018-08-25T08:10:34.061Z,100144.86
2018-08-25T08:13:02.303Z,100148.55
2018-08-25T08:15:30.516Z,100144.25
2018-08-25T08:17:58.896Z,100136.28
2018-08-25T08:20:27.104Z,100135.45
2018-08-25T08:22:55.337Z,100134.20
2018-08-25T08:25:23.601Z,100140.27
2018-08-25T08:27:51.831Z,100148.72
2018-08-25T08:30:20.056Z,100150.34
2018-08-25T08:32:48.389Z,100150.13
2018-08-25T08:35:18.232Z,100159.63
2018-08-25T08:37:46.488Z,100156.57
2018-08-25T08:40:14.721Z,100164.14
2018-08-25T08:42:43.012Z,100161.89
2018-08-25T08:45:11.236Z,100162.70
2018-08-25T08:47:39.627Z,100164.75
2018-08-25T08:50:09.380Z,100164.66
2018-08-25T08:52:37.655Z,100174.73
2018-08-25T08:55:06.261Z,100171.70
2018-08-25T08:57:34.468Z,100179.17
2018-08-25T09:00:02.735Z,100198.73
2018-08-25T09:02:30.980Z,100204.23
2018-08-25T09:04:59.270Z,100199.80
2018-08-25T09:07:27.477Z,100202.94
2018-08-25T09:09:55.696Z,100199.38
2018-08-25T09:12:23.934Z,100195.93
2018-08-25T09:14:52.169Z,100198.98
2018-08-25T09:17:20.424Z,100198.98
2018-08-25T09:19:48.660Z,100196.28
2018-08-25T09:22:16.929Z,100196.80
2018-08-25T09:24:45.189Z,100191.41
2018-08-25T09:27:13.701Z,100200.34
2018-08-25T09:29:41.946Z,100193.25
2018-08-25T09:32:10.220Z,100200.35
2018-08-25T09:34:38.448Z,100193.53
2018-08-25T09:37:06.676Z,100187.55
2018-08-25T09:39:35.448Z,100188.19
2018-08-25T09:42:04.157Z,100184.92
2018-08-25T09:44:33.186Z,100189.77
2018-08-25T09:47:02.128Z,100181.94
2018-08-25T09:49:30.748Z,100188.77
2018-08-25T09:51:59.448Z,100199.59
2018-08-25T09:54:27.705Z,100192.36
2018-08-25T09:56:55.953Z,100196.52
2018-08-25T09:59:24.183Z,100180.57
2018-08-25T10:01:58.188Z,100194.80
2018-08-25T10:04:26.656Z,100199.16
2018-08-25T10:06:55.140Z,100201.47
2018-08-25T10:09:23.600Z,100194.79
2018-08-25T10:11:51.905Z,100195.08
2018-08-25T10:14:20.220Z,100208.11
2018-08-25T10:16:48.613Z,100214.29
2018-08-25T10:19:17.112Z,100215.38
2018-08-25T10:21:45.408Z,100214.71
2018-08-25T10:24:13.829Z,100221.81
2018-08-25T10:26:42.036Z,100220.45
2018-08-25T10:29:10.645Z,100227.52
2018-08-25T10:31:38.848Z,100219.67
2018-08-25T10:34:07.258Z,100225.84
2018-08-25T10:36:35.788Z,100216.78
2018-08-25T10:39:05.216Z,100216.36
2018-08-25T10:41:33.535Z,100228.38
2018-08-25T10:44:01.947Z,100226.40
2018-08-25T10:46:30.401Z,100221.34
2018-08-25T10:48:58.804Z,100223.10
2018-08-25T10:51:27.832Z,100233.34
2018-08-25T10:53:56.158Z,100232.86
2018-08-25T10:56:24.725Z,100232.84
2018-08-25T10:58:52.938Z,100231.81
2018-08-25T11:01:21.197Z,100237.70
2018-08-25T11:03:49.528Z,100234.08
2018-08-25T11:06:17.764Z,100245.02
2018-08-25T11:08:46.353Z,100236.64
2018-08-25T11:11:15.513Z,100239.75
2018-08-25T11:13:43.881Z,100239.29
2018-08-25T11:16:12.176Z,100234.43
2018-08-25T11:18:40.809Z,100239.08
2018-08-25T11:21:09.270Z,100235.11
2018-08-25T11:23:37.834Z,100239.50
2018-08-25T11:26:06.375Z,100239.89
2018-08-25T11:28:34.917Z,100247.56
2018-08-25T11:31:04.417Z,100251.12
2018-08-25T11:33:32.937Z,100260.22
2018-08-25T11:36:01.220Z,100263.27
2018-08-25T11:38:29.491Z,100268.22
2018-08-25T11:40:58.181Z,100264.09
2018-08-25T11:43:26.604Z,100265.93
2018-08-25T11:45:54.902Z,100271.12
2018-08-25T11:48:27.229Z,100264.20
2018-08-25T11:50:55.992Z,100273.98
2018-08-25T11:53:24.377Z,100270.98
2018-08-25T11:55:52.900Z,100267.72
2018-08-25T11:58:21.236Z,100277.58
2018-08-25T12:00:49.557Z,100280.50
2018-08-25T12:03:17.851Z,100277.19
2018-08-25T12:05:46.915Z,100273.70
2018-08-25T12:08:15.449Z,100271.27
2018-08-25T12:10:43.749Z,100271.42
2018-08-25T12:13:11.974Z,100267.79
2018-08-25T12:15:40.271Z,100274.95
2018-08-25T12:18:08.651Z,100279.98
2018-08-25T12:20:37.167Z,100275.03
2018-08-25T12:23:05.825Z,100280.56
2018-08-25T12:25:34.077Z,100288.62
2018-08-25T12:28:02.284Z,100286.47
2018-08-25T12:30:30.793Z,100293.05
2018-08-25T12:32:59.068Z,100294.75
2018-08-25T12:35:27.351Z,100296.12
2018-08-25T12:37:55.598Z,100297.53
2018-08-25T12:40:24.116Z,100294.13
2018-08-25T12:42:52.545Z,100293.82
2018-08-25T12:45:20.800Z,100296.02
2018-08-25T12:47:49.117Z,100295.91
2018-08-25T12:50:17.437Z,100297.05
2018-08-25T12:52:45.949Z,100298.90
2018-08-25T12:55:14.388Z,100303.34
2018-08-25T12:57:42.659Z,100301.58
2018-08-25T13:00:11.794Z,100301.84
2018-08-25T13:02:40.933Z,100306.34
2018-08-25T13:05:09.208Z,100309.03
2018-08-25T13:07:37.926Z,100305.49
2018-08-25T13:10:06.358Z,100299.69
2018-08-25T13:12:34.820Z,100301.72
2018-08-25T13:15:04.061Z,100302.16
2018-08-25T13:17:32.325Z,100298.25
2018-08-25T13:20:00.589Z,100300.92
2018-08-25T13:22:28.866Z,100306.70
2018-08-25T13:24:57.276Z,100307.64
2018-08-25T13:27:25.505Z,100303.45
2018-08-25T13:29:53.843Z,100310.34
2018-08-25T13:32:22.205Z,100302.22
2018-08-25T13:34:51.357Z,100306.26
2018-08-25T13:37:19.620Z,100312.70
2018-08-25T13:39:47.954Z,100309.10
2018-08-25T13:42:16.325Z,100311.28
2018-08-25T13:44:44.582Z,100309.92
2018-08-25T13:47:12.849Z,100313.81
2018-08-25T13:49:41.088Z,100305.02
2018-08-25T13:52:09.362Z,100307.92
2018-08-25T13:54:37.561Z,100320.15
2018-08-25T13:57:05.789Z,100318.02
2018-08-25T13:59:34.006Z,100322.51
2018-08-25T14:02:02.268Z,100320.93
2018-08-25T14:04:30.509Z,100325.48
2018-08-25T14:06:59.002Z,100330.80
2018-08-25T14:09:27.222Z,100337.81
2018-08-25T14:11:55.467Z,100325.77
2018-08-25T14:14:23.688Z,100331.91
2018-08-25T14:16:51.957Z,100354.88
2018-08-25T14:19:20.200Z,100362.56
2018-08-25T14:21:48.450Z,100366.79
2018-08-25T14:24:16.680Z,100366.60
2018-08-25T14:26:44.931Z,100364.16
2018-08-25T14:29:13.396Z,100361.45
2018-08-25T14:31:41.648Z,100362.65
2018-08-25T14:34:09.868Z,100362.83
2018-08-25T14:36:38.096Z,100367.56
2018-08-25T14:39:07.941Z,100363.83
2018-08-25T14:41:36.288Z,100368.41
2018-08-25T14:44:05.293Z,100378.97
2018-08-25T14:46:33.732Z,100388.38
2018-08-25T14:49:02.007Z,100369.41
2018-08-25T14:51:30.568Z,100391.86
2018-08-25T14:53:58.840Z,100394.13
2018-08-25T14:56:27.323Z,100395.53
2018-08-25T14:58:55.564Z,100391.71
2018-08-25T15:01:23.780Z,100394.58
2018-08-25T15:03:52.020Z,100392.59
2018-08-25T15:06:20.232Z,100398.77
2018-08-25T15:08:48.521Z,100400.23
2018-08-25T15:11:16.833Z,100409.91
2018-08-25T15:13:45.055Z,100405.73
2018-08-25T15:16:13.333Z,100406.92
2018-08-25T15:18:41.629Z,100405.47
2018-08-25T15:21:09.914Z,100404.75
2018-08-25T15:23:38.172Z,100406.04
2018-08-25T15:26:06.429Z,100419.25
2018-08-25T15:28:34.673Z,100439.11
2018-08-25T15:31:02.914Z,100457.65
2018-08-25T15:33:31.141Z,100453.20
2018-08-25T15:35:59.441Z,100453.71
2018-08-25T15:38:27.672Z,100454.34
2018-08-25T15:40:55.968Z,100456.66
2018-08-25T15:43:24.211Z,100453.63
2018-08-25T15:45:52.527Z,100450.97
2018-08-25T15:48:20.772Z,100446.05
2018-08-25T15:50:49.127Z,100446.42
2018-08-25T15:53:17.407Z,100446.23
2018-08-25T15:55:45.628Z,100449.01
2018-08-25T15:58:13.857Z,100448.03
2018-08-25T16:00:42.088Z,100444.92
2018-08-25T16:03:10.321Z,100455.49
2018-08-25T16:05:38.552Z,100450.06
2018-08-25T16:08:06.799Z,100424.45
2018-08-25T16:10:35.000Z,100445.78
2018-08-25T16:13:03.225Z,100447.58
2018-08-25T16:15:31.452Z,100448.89
2018-08-25T16:17:59.695Z,100448.69
2018-08-25T16:20:27.906Z,100454.30
2018-08-25T16:22:56.165Z,100452.36
2018-08-25T16:25:24.384Z,100456.04
2018-08-25T16:27:52.641Z,100459.98
2018-08-25T16:30:20.848Z,100463.38
2018-08-25T16:32:49.112Z,100458.11
2018-08-25T16:35:17.317Z,100455.18
2018-08-25T16:37:45.519Z,100457.31
2018-08-25T16:40:13.804Z,100462.88
2018-08-25T16:42:42.008Z,100461.23
2018-08-25T16:45:10.239Z,100462.61
2018-08-25T16:47:38.448Z,100464.92
2018-08-25T16:50:06.780Z,100460.09
2018-08-25T16:52:34.997Z,100467.96
2018-08-25T16:55:03.249Z,100476.77
2018-08-25T16:57:31.733Z,100477.78
2018-08-25T16:59:59.970Z,100477.20
2018-08-25T17:02:28.212Z,100481.08
2018-08-25T17:04:57.305Z,100478.91
2018-08-25T17:07:25.503Z,100474.36
2018-08-25T17:09:53.760Z,100479.11
2018-08-25T17:12:21.996Z,100486.55
2018-08-25T17:14:50.244Z,100489.58
2018-08-25T17:17:18.464Z,100494.39
2018-08-25T17:19:46.713Z,100496.05
2018-08-25T17:22:15.048Z,100506.31
2018-08-25T17:24:43.356Z,100502.41
2018-08-25T17:27:11.591Z,100509.11
2018-08-25T17:29:39.833Z,100508.25
2018-08-25T17:32:08.061Z,100512.19
2018-08-25T17:34:36.297Z,100519.88
2018-08-25T17:37:04.544Z,100524.17
2018-08-25T17:39:32.776Z,100531.09
2018-08-25T17:42:01.018Z,100527.30
2018-08-25T17:44:30.373Z,100528.57
2018-08-25T17:46:58.601Z,100528.22
2018-08-25T17:49:26.836Z,100540.28
2018-08-25T17:51:55.164Z,100536.90
2018-08-25T17:54:23.414Z,100544.22
2018-08-25T17:56:51.678Z,100552.50
2018-08-25T17:59:19.853Z,100549.39
2018-08-25T18:01:48.403Z,100548.58
2018-08-25T18:04:16.737Z,100556.25
2018-08-25T18:06:46.102Z,100555.03
2018-08-25T18:09:15.936Z,100557.02
2018-08-25T18:11:45.697Z,100561.38
2018-08-25T18:14:15.243Z,100558.92
2018-08-25T18:16:45.676Z,100564.88
2018-08-25T18:19:15.176Z,100571.97
2018-08-25T18:21:44.570Z,100574.66
2018-08-25T18:24:15.784Z,100576.32
2018-08-25T18:26:47.534Z,100575.88
2018-08-25T18:29:18.165Z,100585.25
2018-08-25T18:31:47.770Z,100586.44
2018-08-25T18:34:18.092Z,100598.42
2018-08-25T18:36:49.371Z,100594.50
2018-08-25T18:39:20.067Z,100593.64
2018-08-25T18:41:50.188Z,100603.42
2018-08-25T18:44:20.231Z,100602.19
2018-08-25T18:46:50.230Z,100611.57
2018-08-25T18:49:20.640Z,100619.73
2018-08-25T18:51:50.534Z,100621.91
2018-08-25T18:54:20.554Z,100626.59
2018-08-25T18:56:50.719Z,100625.77
2018-08-25T18:59:20.587Z,100626.70
2018-08-25T19:01:51.223Z,100631.53
2018-08-25T19:04:21.879Z,100631.53
2018-08-25T19:06:53.996Z,100632.02
2018-08-25T19:09:23.359Z,100634.69
2018-08-25T19:11:53.667Z,100638.98
2018-08-25T19:14:23.849Z,100639.50
2018-08-25T19:16:53.759Z,100643.41
2018-08-25T19:19:22.172Z,100651.54
2018-08-25T19:21:50.424Z,100650.77
2018-08-25T19:24:18.678Z,100658.92
2018-08-25T19:26:46.904Z,100661.08
2018-08-25T19:29:15.117Z,100658.50
2018-08-25T19:31:43.348Z,100658.14
2018-08-25T19:34:11.568Z,100663.73
2018-08-25T19:36:39.801Z,100659.50
2018-08-25T19:39:09.425Z,100653.92
2018-08-25T19:41:37.732Z,100656.49
2018-08-25T19:44:05.993Z,100656.06
2018-08-25T19:46:34.274Z,100658.68
2018-08-25T19:49:02.508Z,100661.62
2018-08-25T19:51:30.765Z,100661.62
2018-08-25T19:54:00.096Z,100672.85
2018-08-25T19:56:28.380Z,100670.39
2018-08-25T19:58:56.605Z,100678.09
2018-08-25T20:01:25.036Z,100680.77
2018-08-25T20:03:53.285Z,100680.36
2018-08-25T20:06:21.578Z,100685.09
2018-08-25T20:08:49.798Z,100680.77
2018-08-25T20:11:18.041Z,100675.13
2018-08-25T20:13:46.404Z,100679.02
2018-08-25T20:16:14.552Z,100680.31
2018-08-25T20:18:42.760Z,100686.32
2018-08-25T20:21:10.984Z,100687.19
2018-08-25T20:23:39.212Z,100697.47
2018-08-25T20:26:07.446Z,100691.88
2018-08-25T20:28:35.672Z,100703.48
2018-08-25T20:31:03.952Z,100696.17
2018-08-25T20:33:32.140Z,100699.21
2018-08-25T20:36:00.453Z,100710.83
2018-08-25T20:38:28.761Z,100710.88
2018-08-25T20:40:57.245Z,100710.02
2018-08-25T20:43:25.484Z,100709.12
2018-08-25T20:45:53.860Z,100718.54
2018-08-25T20:48:22.044Z,100719.40
2018-08-25T20:50:50.361Z,100719.83
2018-08-25T20:53:18.652Z,100721.55
2018-08-25T20:55:47.009Z,100719.39
2018-08-25T20:58:15.273Z,100726.28
2018-08-25T21:00:43.554Z,100722.44
2018-08-25T21:03:11.762Z,100722.42
2018-08-25T21:05:40.051Z,100725.03
2018-08-25T21:08:08.308Z,100726.30
2018-08-25T21:10:36.521Z,100732.31
2018-08-25T21:13:04.757Z,100730.64
2018-08-25T21:15:32.965Z,100731.91
2018-08-25T21:18:01.225Z,100733.65
2018-08-25T21:20:29.440Z,100736.21
2018-08-25T21:22:57.761Z,100738.38
2018-08-25T21:25:25.914Z,100738.83
2018-08-25T21:27:54.150Z,100734.98
2018-08-25T21:30:23.083Z,100740.97
2018-08-25T21:32:51.341Z,100746.13
2018-08-25T21:35:19.713Z,100745.70
2018-08-25T21:37:47.951Z,100742.26
2018-08-25T21:40:16.188Z,100746.56
2018-08-25T21:42:44.523Z,100749.13
2018-08-25T21:45:12.764Z,100752.99
2018-08-25T21:47:41.049Z,100753.83
2018-08-25T21:50:09.309Z,100758.13
2018-08-25T21:52:37.566Z,100762.00
2018-08-25T21:55:05.798Z,100763.30
2018-08-25T21:57:34.055Z,100767.14
2018-08-25T22:00:02.260Z,100760.71
2018-08-25T22:02:30.573Z,100760.71
2018-08-25T22:04:58.797Z,100760.70
2018-08-25T22:07:27.030Z,100762.86
2018-08-25T22:09:55.245Z,100767.16
2018-08-25T22:12:23.465Z,100772.30
2018-08-25T22:14:51.728Z,100768.44
2018-08-25T22:17:19.968Z,100775.28
2018-08-25T22:19:48.172Z,100774.85
2018-08-25T22:22:16.404Z,100777.88
2018-08-25T22:24:44.641Z,100780.45
2018-08-25T22:27:12.884Z,100780.86
2018-08-25T22:29:41.117Z,100780.01
2018-08-25T22:32:09.359Z,100785.59
2018-08-25T22:34:37.570Z,100786.89
2018-08-25T22:37:05.812Z,100786.87
2018-08-25T22:39:34.044Z,100789.45
2018-08-25T22:42:02.285Z,100794.55
2018-08-25T22:44:30.500Z,100797.98
2018-08-25T22:46:58.739Z,100799.72
2018-08-25T22:49:26.936Z,100801.03
2018-08-25T22:51:55.213Z,100807.89
2018-08-25T22:54:23.416Z,100807.84
2018-08-25T22:56:51.640Z,100808.72
2018-08-25T22:59:19.840Z,100810.02
2018-08-25T23:01:48.089Z,100816.03
2018-08-25T23:04:16.321Z,100813.89
2018-08-25T23:06:44.528Z,100822.48
2018-08-25T23:09:12.757Z,100820.30
2018-08-25T23:11:41.107Z,100816.84
2018-08-25T23:14:09.324Z,100817.28
2018-08-25T23:16:37.535Z,100819.42
2018-08-25T23:19:06.004Z,100816.44
2018-08-25T23:21:34.211Z,100815.57
2018-08-25T23:24:02.428Z,100817.70
2018-08-25T23:26:30.662Z,100815.55
2018-08-25T23:28:58.900Z,100815.12
2018-08-25T23:31:27.171Z,100808.70
2018-08-25T23:33:55.452Z,100820.27
2018-08-25T23:36:23.668Z,100820.27
2018-08-25T23:38:51.926Z,100824.12
2018-08-25T23:41:20.121Z,100820.67
2018-08-25T23:43:48.343Z,100818.95
2018-08-25T23:46:16.549Z,100831.35
2018-08-25T23:48:44.756Z,100834.33
2018-08-25T23:51:13.000Z,100835.19
2018-08-25T23:53:41.212Z,100839.44
2018-08-25T23:56:09.453Z,100837.73
2018-08-25T23:58:37.676Z,100840.27
